Optima, Oklahoma
Current Conditions -  °F | °C
As of 7:15 AM on Thursday 27 Nov 2014 (Local Time) from KLBL Reporting Station
Clear Clear  
Wind Chill: 15°   Ceiling: Unl
Heat Index: 25°   Visibility: 10mi
Dew Point: 16°   Wind: 10mph
Humidity: 69%   Direction: 180°S
Pressure: 30.42"   Gusts: NA
Location:  36.8317°N, 101.155°W
Report Text: KLBL 271315Z AUTO 18009KT 10SM CLR M04/M09 A3042 RMK AO1
Loading
Personal Weather Stations






























Interactive Weather Map New forecast layout! Learn more

10-Day Weather Forecast

Advertisements
Track Severe Weather on mobile